Terminal Aerodrome Forecast
Issued by NWS

Home | Current Version | Previous Version | Text Only | Print | Product List | Glossary On
Versions: 1 2 3 4 5 6 7 8 9 10 11 12 13 14 15 16 17 18 19 20 21 22
000
FTUS43 KGRB 261134
TAFAUW
TAF
KAUW 261134Z 2612/2712 19010G15KT P6SM SCT025 BKN050
     FM261400 23010G18KT P6SM VCSH BKN040 BKN100
     FM262300 26010KT P6SM BKN040
     FM270100 27008KT P6SM SCT040 BKN090
     FM270400 28004KT P6SM SCT090=

USA.gov is the U.S. government's official web portal to all federal, state and local government web resources and services.